Garden Ridge, Texas
Current Conditions -  °F | °C
As of 9:58 AM on Thursday 30 Oct 2014 (Local Time) from KRND Reporting Station
Overcast Overcast  
Wind Chill: 66°   Ceiling: 900
Heat Index: 66°   Visibility: 10mi
Dew Point: 60°   Wind: 5mph
Humidity: 82%   Direction: 50°NE
Pressure: 30.16"   Gusts: NA
Location:  29.6654°N, 98.3191°W
Report Text: KRND 301458Z 05004KT 10SM BKN009 OVC018 19/16 A3016 RMK AO2A SLP208 T01870156 52015
Loading
Personal Weather Stations






























Interactive Weather Map
Tropical Storm Tracking
New forecast layout! Learn more

10-Day Weather Forecast

Advertisements
Track Severe Weather on mobile